sensor_id;sensor_type;location;lat;lon;timestamp;P1;durP1;ratioP1;P2;durP2;ratioP2
57828;SDS011;43657;52.698;6.314;2023-12-28T00:00:29;6.20;;;5.40;;
57828;SDS011;43657;52.698;6.314;2023-12-28T00:02:55;7.03;;;5.50;;
57828;SDS011;43657;52.698;6.314;2023-12-28T00:05:21;5.90;;;5.10;;
57828;SDS011;43657;52.698;6.314;2023-12-28T00:07:47;5.90;;;4.97;;
57828;SDS011;43657;52.698;6.314;2023-12-28T00:10:12;7.00;;;5.70;;
57828;SDS011;43657;52.698;6.314;2023-12-28T00:12:38;6.88;;;5.85;;
57828;SDS011;43657;52.698;6.314;2023-12-28T00:15:03;5.82;;;4.90;;
57828;SDS011;43657;52.698;6.314;2023-12-28T00:17:29;5.85;;;5.20;;
57828;SDS011;43657;52.698;6.314;2023-12-28T00:19:55;7.00;;;5.88;;
57828;SDS011;43657;52.698;6.314;2023-12-28T00:22:20;9.00;;;5.80;;
57828;SDS011;43657;52.698;6.314;2023-12-28T00:24:46;5.88;;;4.75;;
57828;SDS011;43657;52.698;6.314;2023-12-28T00:27:11;6.72;;;5.25;;
57828;SDS011;43657;52.698;6.314;2023-12-28T00:29:37;7.85;;;5.30;;
57828;SDS011;43657;52.698;6.314;2023-12-28T00:32:08;8.13;;;5.82;;
57828;SDS011;43657;52.698;6.314;2023-12-28T00:34:34;7.07;;;5.32;;
57828;SDS011;43657;52.698;6.314;2023-12-28T00:37:01;7.53;;;5.75;;
57828;SDS011;43657;52.698;6.314;2023-12-28T00:39:27;8.63;;;5.90;;
57828;SDS011;43657;52.698;6.314;2023-12-28T00:41:52;9.68;;;5.75;;
57828;SDS011;43657;52.698;6.314;2023-12-28T00:44:18;9.52;;;5.80;;
57828;SDS011;43657;52.698;6.314;2023-12-28T00:46:43;6.72;;;5.30;;
57828;SDS011;43657;52.698;6.314;2023-12-28T00:49:09;7.72;;;5.72;;
57828;SDS011;43657;52.698;6.314;2023-12-28T00:51:34;7.60;;;5.75;;
57828;SDS011;43657;52.698;6.314;2023-12-28T00:54:00;9.23;;;5.32;;
57828;SDS011;43657;52.698;6.314;2023-12-28T00:56:25;8.20;;;5.75;;
57828;SDS011;43657;52.698;6.314;2023-12-28T00:58:51;10.40;;;6.53;;
57828;SDS011;43657;52.698;6.314;2023-12-28T01:01:16;11.80;;;6.47;;
57828;SDS011;43657;52.698;6.314;2023-12-28T01:03:42;8.98;;;6.30;;
57828;SDS011;43657;52.698;6.314;2023-12-28T01:06:08;10.18;;;6.03;;
57828;SDS011;43657;52.698;6.314;2023-12-28T01:08:33;8.40;;;5.85;;
57828;SDS011;43657;52.698;6.314;2023-12-28T01:10:59;8.30;;;6.07;;
57828;SDS011;43657;52.698;6.314;2023-12-28T01:13:25;9.48;;;6.53;;
57828;SDS011;43657;52.698;6.314;2023-12-28T01:15:52;9.55;;;5.90;;
57828;SDS011;43657;52.698;6.314;2023-12-28T01:18:17;10.88;;;6.40;;
57828;SDS011;43657;52.698;6.314;2023-12-28T01:20:44;10.30;;;6.07;;
57828;SDS011;43657;52.698;6.314;2023-12-28T01:23:09;9.13;;;6.03;;
57828;SDS011;43657;52.698;6.314;2023-12-28T01:25:35;13.27;;;6.70;;
57828;SDS011;43657;52.698;6.314;2023-12-28T01:28:00;12.00;;;6.88;;
57828;SDS011;43657;52.698;6.314;2023-12-28T01:30:26;12.73;;;6.32;;
57828;SDS011;43657;52.698;6.314;2023-12-28T01:32:51;11.70;;;6.07;;
57828;SDS011;43657;52.698;6.314;2023-12-28T01:35:17;11.77;;;6.13;;
57828;SDS011;43657;52.698;6.314;2023-12-28T01:37:42;13.80;;;6.88;;
57828;SDS011;43657;52.698;6.314;2023-12-28T01:40:08;10.95;;;6.05;;
57828;SDS011;43657;52.698;6.314;2023-12-28T01:42:34;13.02;;;6.50;;
57828;SDS011;43657;52.698;6.314;2023-12-28T01:45:00;10.18;;;6.20;;
57828;SDS011;43657;52.698;6.314;2023-12-28T01:47:26;13.90;;;6.53;;
57828;SDS011;43657;52.698;6.314;2023-12-28T01:49:53;13.15;;;6.40;;
57828;SDS011;43657;52.698;6.314;2023-12-28T01:52:19;11.38;;;5.28;;
57828;SDS011;43657;52.698;6.314;2023-12-28T01:54:45;10.32;;;6.10;;
57828;SDS011;43657;52.698;6.314;2023-12-28T01:57:11;13.27;;;6.53;;
57828;SDS011;43657;52.698;6.314;2023-12-28T01:59:38;11.13;;;5.30;;
57828;SDS011;43657;52.698;6.314;2023-12-28T02:02:04;16.58;;;6.10;;
57828;SDS011;43657;52.698;6.314;2023-12-28T02:04:31;12.40;;;6.03;;
57828;SDS011;43657;52.698;6.314;2023-12-28T02:06:59;13.25;;;5.70;;
57828;SDS011;43657;52.698;6.314;2023-12-28T02:09:25;14.23;;;5.40;;
57828;SDS011;43657;52.698;6.314;2023-12-28T02:11:51;12.88;;;5.88;;
57828;SDS011;43657;52.698;6.314;2023-12-28T02:14:17;12.50;;;4.85;;
57828;SDS011;43657;52.698;6.314;2023-12-28T02:16:47;12.82;;;5.10;;
57828;SDS011;43657;52.698;6.314;2023-12-28T02:19:29;14.82;;;5.40;;
57828;SDS011;43657;52.698;6.314;2023-12-28T02:22:01;12.70;;;4.38;;
57828;SDS011;43657;52.698;6.314;2023-12-28T02:24:27;13.25;;;5.30;;
57828;SDS011;43657;52.698;6.314;2023-12-28T02:26:53;13.73;;;4.47;;
57828;SDS011;43657;52.698;6.314;2023-12-28T02:29:18;12.75;;;4.70;;
57828;SDS011;43657;52.698;6.314;2023-12-28T02:31:51;10.77;;;4.43;;
57828;SDS011;43657;52.698;6.314;2023-12-28T02:34:28;12.50;;;4.50;;
57828;SDS011;43657;52.698;6.314;2023-12-28T02:36:58;12.65;;;4.25;;
57828;SDS011;43657;52.698;6.314;2023-12-28T02:39:26;12.30;;;4.70;;
57828;SDS011;43657;52.698;6.314;2023-12-28T02:41:54;9.93;;;3.85;;
57828;SDS011;43657;52.698;6.314;2023-12-28T02:44:20;12.68;;;4.72;;
57828;SDS011;43657;52.698;6.314;2023-12-28T02:46:46;13.02;;;4.63;;
57828;SDS011;43657;52.698;6.314;2023-12-28T02:49:12;14.77;;;4.60;;
57828;SDS011;43657;52.698;6.314;2023-12-28T02:51:37;12.57;;;4.07;;
57828;SDS011;43657;52.698;6.314;2023-12-28T02:54:04;11.60;;;4.00;;
57828;SDS011;43657;52.698;6.314;2023-12-28T02:56:29;11.48;;;4.07;;
57828;SDS011;43657;52.698;6.314;2023-12-28T02:58:57;13.60;;;4.55;;
57828;SDS011;43657;52.698;6.314;2023-12-28T03:01:22;10.77;;;4.05;;
57828;SDS011;43657;52.698;6.314;2023-12-28T03:03:48;11.77;;;4.20;;
57828;SDS011;43657;52.698;6.314;2023-12-28T03:06:14;9.07;;;4.22;;
57828;SDS011;43657;52.698;6.314;2023-12-28T03:08:39;11.60;;;4.22;;
57828;SDS011;43657;52.698;6.314;2023-12-28T03:11:05;9.77;;;4.30;;
57828;SDS011;43657;52.698;6.314;2023-12-28T03:13:30;13.88;;;4.20;;
57828;SDS011;43657;52.698;6.314;2023-12-28T03:15:57;9.98;;;4.00;;
57828;SDS011;43657;52.698;6.314;2023-12-28T03:18:23;8.43;;;4.13;;
57828;SDS011;43657;52.698;6.314;2023-12-28T03:20:48;9.50;;;3.78;;
57828;SDS011;43657;52.698;6.314;2023-12-28T03:23:14;13.02;;;4.07;;
57828;SDS011;43657;52.698;6.314;2023-12-28T03:25:39;11.30;;;3.63;;
57828;SDS011;43657;52.698;6.314;2023-12-28T03:28:05;9.38;;;3.85;;
57828;SDS011;43657;52.698;6.314;2023-12-28T03:30:30;10.45;;;3.95;;
57828;SDS011;43657;52.698;6.314;2023-12-28T03:32:56;9.52;;;4.20;;
57828;SDS011;43657;52.698;6.314;2023-12-28T03:35:22;8.65;;;4.05;;
57828;SDS011;43657;52.698;6.314;2023-12-28T03:37:47;9.07;;;3.55;;
57828;SDS011;43657;52.698;6.314;2023-12-28T03:40:13;10.40;;;4.10;;
57828;SDS011;43657;52.698;6.314;2023-12-28T03:42:38;12.13;;;4.05;;
57828;SDS011;43657;52.698;6.314;2023-12-28T03:45:04;9.35;;;3.63;;
57828;SDS011;43657;52.698;6.314;2023-12-28T03:47:30;12.55;;;3.67;;
57828;SDS011;43657;52.698;6.314;2023-12-28T03:49:56;11.25;;;4.43;;
57828;SDS011;43657;52.698;6.314;2023-12-28T03:52:22;10.52;;;4.22;;
57828;SDS011;43657;52.698;6.314;2023-12-28T03:54:50;11.60;;;3.83;;
57828;SDS011;43657;52.698;6.314;2023-12-28T03:57:16;10.02;;;3.47;;
57828;SDS011;43657;52.698;6.314;2023-12-28T03:59:41;11.82;;;3.40;;
57828;SDS011;43657;52.698;6.314;2023-12-28T04:02:07;13.00;;;3.85;;
57828;SDS011;43657;52.698;6.314;2023-12-28T04:04:32;12.18;;;4.50;;
57828;SDS011;43657;52.698;6.314;2023-12-28T04:06:58;10.60;;;3.78;;
57828;SDS011;43657;52.698;6.314;2023-12-28T04:09:23;13.55;;;3.70;;
57828;SDS011;43657;52.698;6.314;2023-12-28T04:11:49;13.95;;;4.05;;
57828;SDS011;43657;52.698;6.314;2023-12-28T04:14:14;10.32;;;3.60;;
57828;SDS011;43657;52.698;6.314;2023-12-28T04:16:40;11.90;;;3.88;;
57828;SDS011;43657;52.698;6.314;2023-12-28T04:19:05;12.10;;;3.83;;
57828;SDS011;43657;52.698;6.314;2023-12-28T04:21:31;13.30;;;3.75;;
57828;SDS011;43657;52.698;6.314;2023-12-28T04:23:57;14.23;;;4.25;;
57828;SDS011;43657;52.698;6.314;2023-12-28T04:26:22;12.60;;;3.67;;
57828;SDS011;43657;52.698;6.314;2023-12-28T04:28:48;13.95;;;4.10;;
57828;SDS011;43657;52.698;6.314;2023-12-28T04:31:13;15.88;;;3.67;;
57828;SDS011;43657;52.698;6.314;2023-12-28T04:33:39;13.27;;;3.80;;
57828;SDS011;43657;52.698;6.314;2023-12-28T04:36:04;14.38;;;4.07;;
57828;SDS011;43657;52.698;6.314;2023-12-28T04:38:30;17.63;;;3.97;;
57828;SDS011;43657;52.698;6.314;2023-12-28T04:40:56;13.48;;;3.90;;
57828;SDS011;43657;52.698;6.314;2023-12-28T04:43:22;15.68;;;3.70;;
57828;SDS011;43657;52.698;6.314;2023-12-28T04:45:49;11.40;;;3.33;;
57828;SDS011;43657;52.698;6.314;2023-12-28T04:48:15;12.80;;;3.67;;
57828;SDS011;43657;52.698;6.314;2023-12-28T04:50:40;12.68;;;3.50;;
57828;SDS011;43657;52.698;6.314;2023-12-28T04:53:06;14.10;;;3.92;;
57828;SDS011;43657;52.698;6.314;2023-12-28T04:55:31;12.07;;;3.13;;
57828;SDS011;43657;52.698;6.314;2023-12-28T04:57:57;16.75;;;4.63;;
57828;SDS011;43657;52.698;6.314;2023-12-28T05:00:22;13.48;;;3.30;;
57828;SDS011;43657;52.698;6.314;2023-12-28T05:02:48;15.48;;;3.83;;
57828;SDS011;43657;52.698;6.314;2023-12-28T05:05:14;13.20;;;4.25;;
57828;SDS011;43657;52.698;6.314;2023-12-28T05:07:39;14.80;;;3.85;;
57828;SDS011;43657;52.698;6.314;2023-12-28T05:10:05;13.80;;;3.53;;
57828;SDS011;43657;52.698;6.314;2023-12-28T05:12:31;17.17;;;4.38;;
57828;SDS011;43657;52.698;6.314;2023-12-28T05:14:56;15.43;;;4.10;;
57828;SDS011;43657;52.698;6.314;2023-12-28T05:17:22;13.45;;;4.05;;
57828;SDS011;43657;52.698;6.314;2023-12-28T05:19:48;12.98;;;3.67;;
57828;SDS011;43657;52.698;6.314;2023-12-28T05:22:13;13.43;;;4.03;;
57828;SDS011;43657;52.698;6.314;2023-12-28T05:24:39;14.50;;;3.88;;
57828;SDS011;43657;52.698;6.314;2023-12-28T05:27:04;14.50;;;3.85;;
57828;SDS011;43657;52.698;6.314;2023-12-28T05:29:30;15.23;;;3.70;;
57828;SDS011;43657;52.698;6.314;2023-12-28T05:31:55;15.07;;;4.00;;
57828;SDS011;43657;52.698;6.314;2023-12-28T05:34:21;12.80;;;4.10;;
57828;SDS011;43657;52.698;6.314;2023-12-28T05:36:46;12.60;;;3.78;;
57828;SDS011;43657;52.698;6.314;2023-12-28T05:39:12;14.45;;;3.72;;
57828;SDS011;43657;52.698;6.314;2023-12-28T05:41:40;16.35;;;3.85;;
57828;SDS011;43657;52.698;6.314;2023-12-28T05:44:06;14.40;;;4.00;;
57828;SDS011;43657;52.698;6.314;2023-12-28T05:46:31;14.68;;;3.60;;
57828;SDS011;43657;52.698;6.314;2023-12-28T05:48:57;13.65;;;3.55;;
57828;SDS011;43657;52.698;6.314;2023-12-28T05:51:23;14.65;;;4.07;;
57828;SDS011;43657;52.698;6.314;2023-12-28T05:53:48;18.50;;;4.53;;
57828;SDS011;43657;52.698;6.314;2023-12-28T05:56:14;13.82;;;3.50;;
57828;SDS011;43657;52.698;6.314;2023-12-28T05:58:39;17.33;;;4.38;;
57828;SDS011;43657;52.698;6.314;2023-12-28T06:01:06;16.85;;;4.10;;
57828;SDS011;43657;52.698;6.314;2023-12-28T06:03:31;15.02;;;3.40;;
57828;SDS011;43657;52.698;6.314;2023-12-28T06:05:57;16.02;;;4.35;;
57828;SDS011;43657;52.698;6.314;2023-12-28T06:08:22;15.38;;;3.60;;
57828;SDS011;43657;52.698;6.314;2023-12-28T06:10:48;14.93;;;3.85;;
57828;SDS011;43657;52.698;6.314;2023-12-28T06:13:13;15.70;;;4.63;;
57828;SDS011;43657;52.698;6.314;2023-12-28T06:15:40;17.25;;;4.00;;
57828;SDS011;43657;52.698;6.314;2023-12-28T06:18:05;13.52;;;3.53;;
57828;SDS011;43657;52.698;6.314;2023-12-28T06:20:31;17.60;;;4.40;;
57828;SDS011;43657;52.698;6.314;2023-12-28T06:22:57;14.60;;;3.58;;
57828;SDS011;43657;52.698;6.314;2023-12-28T06:25:22;15.48;;;4.18;;
57828;SDS011;43657;52.698;6.314;2023-12-28T06:27:48;15.30;;;3.60;;
57828;SDS011;43657;52.698;6.314;2023-12-28T06:30:13;14.45;;;3.70;;
57828;SDS011;43657;52.698;6.314;2023-12-28T06:32:39;18.38;;;4.35;;
57828;SDS011;43657;52.698;6.314;2023-12-28T06:35:05;13.98;;;3.80;;
57828;SDS011;43657;52.698;6.314;2023-12-28T06:37:31;16.17;;;3.95;;
57828;SDS011;43657;52.698;6.314;2023-12-28T06:39:56;16.30;;;4.32;;
57828;SDS011;43657;52.698;6.314;2023-12-28T06:42:22;18.20;;;4.20;;
57828;SDS011;43657;52.698;6.314;2023-12-28T06:44:48;15.95;;;4.22;;
57828;SDS011;43657;52.698;6.314;2023-12-28T06:47:13;15.63;;;3.95;;
57828;SDS011;43657;52.698;6.314;2023-12-28T06:49:39;17.40;;;3.78;;
57828;SDS011;43657;52.698;6.314;2023-12-28T06:52:04;13.88;;;3.67;;
57828;SDS011;43657;52.698;6.314;2023-12-28T06:54:30;16.48;;;3.90;;
57828;SDS011;43657;52.698;6.314;2023-12-28T06:56:55;18.17;;;4.93;;
57828;SDS011;43657;52.698;6.314;2023-12-28T06:59:21;13.95;;;3.80;;
57828;SDS011;43657;52.698;6.314;2023-12-28T07:01:46;16.73;;;3.80;;
57828;SDS011;43657;52.698;6.314;2023-12-28T07:04:13;17.38;;;4.13;;
57828;SDS011;43657;52.698;6.314;2023-12-28T07:06:39;17.90;;;4.28;;
57828;SDS011;43657;52.698;6.314;2023-12-28T07:09:04;18.52;;;4.63;;
57828;SDS011;43657;52.698;6.314;2023-12-28T07:11:30;19.75;;;4.60;;
57828;SDS011;43657;52.698;6.314;2023-12-28T07:13:56;15.88;;;3.70;;
57828;SDS011;43657;52.698;6.314;2023-12-28T07:16:21;17.25;;;4.03;;
57828;SDS011;43657;52.698;6.314;2023-12-28T07:18:47;20.10;;;5.05;;
57828;SDS011;43657;52.698;6.314;2023-12-28T07:21:13;18.45;;;4.35;;
57828;SDS011;43657;52.698;6.314;2023-12-28T07:23:38;19.33;;;4.82;;
57828;SDS011;43657;52.698;6.314;2023-12-28T07:26:04;16.45;;;4.20;;
57828;SDS011;43657;52.698;6.314;2023-12-28T07:28:30;15.07;;;4.22;;
57828;SDS011;43657;52.698;6.314;2023-12-28T07:30:56;20.40;;;5.60;;
57828;SDS011;43657;52.698;6.314;2023-12-28T07:33:21;17.52;;;4.60;;
57828;SDS011;43657;52.698;6.314;2023-12-28T07:35:47;19.75;;;5.15;;
57828;SDS011;43657;52.698;6.314;2023-12-28T07:38:13;17.58;;;4.38;;
57828;SDS011;43657;52.698;6.314;2023-12-28T07:40:38;20.95;;;5.32;;
57828;SDS011;43657;52.698;6.314;2023-12-28T07:43:04;18.52;;;5.22;;
57828;SDS011;43657;52.698;6.314;2023-12-28T07:45:30;20.00;;;5.15;;
57828;SDS011;43657;52.698;6.314;2023-12-28T07:47:57;16.80;;;4.72;;
57828;SDS011;43657;52.698;6.314;2023-12-28T07:50:24;20.75;;;5.18;;
57828;SDS011;43657;52.698;6.314;2023-12-28T07:52:50;17.48;;;4.47;;
57828;SDS011;43657;52.698;6.314;2023-12-28T07:55:16;18.65;;;4.60;;
57828;SDS011;43657;52.698;6.314;2023-12-28T07:57:42;18.83;;;5.13;;
57828;SDS011;43657;52.698;6.314;2023-12-28T08:00:08;21.50;;;5.47;;
57828;SDS011;43657;52.698;6.314;2023-12-28T08:02:34;20.77;;;5.35;;
57828;SDS011;43657;52.698;6.314;2023-12-28T08:04:59;20.35;;;4.55;;
57828;SDS011;43657;52.698;6.314;2023-12-28T08:07:25;23.40;;;5.93;;
57828;SDS011;43657;52.698;6.314;2023-12-28T08:09:50;22.45;;;5.50;;
57828;SDS011;43657;52.698;6.314;2023-12-28T08:12:16;16.70;;;4.57;;
57828;SDS011;43657;52.698;6.314;2023-12-28T08:14:42;19.48;;;5.05;;
57828;SDS011;43657;52.698;6.314;2023-12-28T08:17:08;18.83;;;4.68;;
57828;SDS011;43657;52.698;6.314;2023-12-28T08:19:34;21.48;;;5.30;;
57828;SDS011;43657;52.698;6.314;2023-12-28T08:22:00;22.77;;;5.25;;
57828;SDS011;43657;52.698;6.314;2023-12-28T08:24:25;19.63;;;4.75;;
57828;SDS011;43657;52.698;6.314;2023-12-28T08:26:51;23.90;;;5.28;;
57828;SDS011;43657;52.698;6.314;2023-12-28T08:29:20;21.08;;;4.80;;
57828;SDS011;43657;52.698;6.314;2023-12-28T08:31:46;22.33;;;5.00;;
57828;SDS011;43657;52.698;6.314;2023-12-28T08:34:11;24.08;;;5.55;;
57828;SDS011;43657;52.698;6.314;2023-12-28T08:36:37;27.30;;;5.95;;
57828;SDS011;43657;52.698;6.314;2023-12-28T08:39:03;24.30;;;5.78;;
57828;SDS011;43657;52.698;6.314;2023-12-28T08:41:29;23.85;;;5.60;;
57828;SDS011;43657;52.698;6.314;2023-12-28T08:43:54;21.38;;;5.00;;
57828;SDS011;43657;52.698;6.314;2023-12-28T08:46:21;18.15;;;5.35;;
57828;SDS011;43657;52.698;6.314;2023-12-28T08:48:47;27.27;;;5.93;;
57828;SDS011;43657;52.698;6.314;2023-12-28T08:51:12;24.65;;;6.30;;
57828;SDS011;43657;52.698;6.314;2023-12-28T08:53:40;21.55;;;4.95;;
57828;SDS011;43657;52.698;6.314;2023-12-28T08:56:19;26.42;;;5.78;;
57828;SDS011;43657;52.698;6.314;2023-12-28T08:58:45;19.23;;;5.03;;
57828;SDS011;43657;52.698;6.314;2023-12-28T09:01:19;26.30;;;5.80;;
57828;SDS011;43657;52.698;6.314;2023-12-28T09:03:50;20.70;;;5.72;;
57828;SDS011;43657;52.698;6.314;2023-12-28T09:06:16;24.33;;;5.68;;
57828;SDS011;43657;52.698;6.314;2023-12-28T09:08:43;23.23;;;5.30;;
57828;SDS011;43657;52.698;6.314;2023-12-28T09:11:12;21.58;;;5.35;;
57828;SDS011;43657;52.698;6.314;2023-12-28T09:13:39;22.90;;;5.57;;
57828;SDS011;43657;52.698;6.314;2023-12-28T09:16:09;20.80;;;4.93;;
57828;SDS011;43657;52.698;6.314;2023-12-28T09:18:36;19.65;;;4.72;;
57828;SDS011;43657;52.698;6.314;2023-12-28T09:21:03;20.23;;;5.30;;
57828;SDS011;43657;52.698;6.314;2023-12-28T09:23:30;17.20;;;5.25;;
57828;SDS011;43657;52.698;6.314;2023-12-28T09:25:56;23.85;;;4.93;;
57828;SDS011;43657;52.698;6.314;2023-12-28T09:28:23;25.08;;;6.10;;
57828;SDS011;43657;52.698;6.314;2023-12-28T09:30:48;23.83;;;4.90;;
57828;SDS011;43657;52.698;6.314;2023-12-28T09:33:14;24.65;;;5.38;;
57828;SDS011;43657;52.698;6.314;2023-12-28T09:35:41;21.55;;;5.20;;
57828;SDS011;43657;52.698;6.314;2023-12-28T09:38:06;21.92;;;5.40;;
57828;SDS011;43657;52.698;6.314;2023-12-28T09:40:32;21.35;;;5.30;;
57828;SDS011;43657;52.698;6.314;2023-12-28T09:43:03;20.08;;;4.78;;
57828;SDS011;43657;52.698;6.314;2023-12-28T09:45:37;23.77;;;5.05;;
57828;SDS011;43657;52.698;6.314;2023-12-28T09:48:03;25.13;;;6.20;;
57828;SDS011;43657;52.698;6.314;2023-12-28T09:50:29;23.25;;;5.28;;
57828;SDS011;43657;52.698;6.314;2023-12-28T09:52:55;21.27;;;5.00;;
57828;SDS011;43657;52.698;6.314;2023-12-28T09:55:21;20.98;;;5.15;;
57828;SDS011;43657;52.698;6.314;2023-12-28T09:57:47;22.55;;;5.47;;
57828;SDS011;43657;52.698;6.314;2023-12-28T10:00:13;23.38;;;5.30;;
57828;SDS011;43657;52.698;6.314;2023-12-28T10:02:40;20.35;;;4.93;;
57828;SDS011;43657;52.698;6.314;2023-12-28T10:05:08;20.10;;;5.10;;
57828;SDS011;43657;52.698;6.314;2023-12-28T10:07:44;20.50;;;5.15;;
57828;SDS011;43657;52.698;6.314;2023-12-28T10:10:10;18.30;;;4.80;;
57828;SDS011;43657;52.698;6.314;2023-12-28T10:12:37;20.67;;;5.00;;
57828;SDS011;43657;52.698;6.314;2023-12-28T10:15:03;19.33;;;4.60;;
57828;SDS011;43657;52.698;6.314;2023-12-28T10:17:32;23.70;;;5.07;;
57828;SDS011;43657;52.698;6.314;2023-12-28T10:19:59;20.02;;;5.70;;
57828;SDS011;43657;52.698;6.314;2023-12-28T10:22:29;19.98;;;5.28;;
57828;SDS011;43657;52.698;6.314;2023-12-28T10:24:58;24.17;;;5.45;;
57828;SDS011;43657;52.698;6.314;2023-12-28T10:27:26;20.98;;;5.22;;
57828;SDS011;43657;52.698;6.314;2023-12-28T10:29:55;18.83;;;4.47;;
57828;SDS011;43657;52.698;6.314;2023-12-28T10:32:22;23.33;;;5.25;;
57828;SDS011;43657;52.698;6.314;2023-12-28T10:34:49;21.50;;;5.22;;
57828;SDS011;43657;52.698;6.314;2023-12-28T10:37:18;19.75;;;5.50;;
57828;SDS011;43657;52.698;6.314;2023-12-28T10:39:48;15.80;;;4.65;;
57828;SDS011;43657;52.698;6.314;2023-12-28T10:42:18;20.05;;;5.50;;
57828;SDS011;43657;52.698;6.314;2023-12-28T10:44:53;19.65;;;5.10;;
57828;SDS011;43657;52.698;6.314;2023-12-28T10:47:24;17.48;;;4.65;;
57828;SDS011;43657;52.698;6.314;2023-12-28T10:49:52;23.80;;;5.03;;
57828;SDS011;43657;52.698;6.314;2023-12-28T10:52:20;20.05;;;4.85;;
57828;SDS011;43657;52.698;6.314;2023-12-28T10:54:57;17.70;;;4.65;;
57828;SDS011;43657;52.698;6.314;2023-12-28T10:57:33;22.67;;;5.22;;
57828;SDS011;43657;52.698;6.314;2023-12-28T11:00:09;19.67;;;4.78;;
57828;SDS011;43657;52.698;6.314;2023-12-28T11:02:39;19.88;;;5.15;;
57828;SDS011;43657;52.698;6.314;2023-12-28T11:05:09;21.40;;;4.57;;
57828;SDS011;43657;52.698;6.314;2023-12-28T11:07:37;17.08;;;5.07;;
57828;SDS011;43657;52.698;6.314;2023-12-28T11:10:05;21.10;;;5.35;;
57828;SDS011;43657;52.698;6.314;2023-12-28T11:12:32;21.05;;;4.78;;
57828;SDS011;43657;52.698;6.314;2023-12-28T11:14:59;20.65;;;4.75;;
57828;SDS011;43657;52.698;6.314;2023-12-28T11:17:25;21.90;;;5.40;;
57828;SDS011;43657;52.698;6.314;2023-12-28T11:19:52;22.70;;;4.70;;
57828;SDS011;43657;52.698;6.314;2023-12-28T11:22:19;23.17;;;5.38;;
57828;SDS011;43657;52.698;6.314;2023-12-28T11:24:47;16.02;;;4.00;;
57828;SDS011;43657;52.698;6.314;2023-12-28T11:27:13;19.45;;;4.90;;
57828;SDS011;43657;52.698;6.314;2023-12-28T11:29:38;18.13;;;4.90;;
57828;SDS011;43657;52.698;6.314;2023-12-28T11:32:05;21.35;;;5.03;;
57828;SDS011;43657;52.698;6.314;2023-12-28T11:34:33;23.15;;;5.43;;
57828;SDS011;43657;52.698;6.314;2023-12-28T11:37:08;18.20;;;4.40;;
57828;SDS011;43657;52.698;6.314;2023-12-28T11:39:43;18.55;;;5.15;;
57828;SDS011;43657;52.698;6.314;2023-12-28T11:42:09;19.48;;;4.75;;
57828;SDS011;43657;52.698;6.314;2023-12-28T11:47:15;21.70;;;4.97;;
57828;SDS011;43657;52.698;6.314;2023-12-28T11:49:42;19.15;;;4.93;;
57828;SDS011;43657;52.698;6.314;2023-12-28T11:52:21;22.27;;;5.22;;
57828;SDS011;43657;52.698;6.314;2023-12-28T11:54:49;19.55;;;4.88;;
57828;SDS011;43657;52.698;6.314;2023-12-28T11:57:15;21.70;;;5.32;;
57828;SDS011;43657;52.698;6.314;2023-12-28T11:59:41;19.63;;;4.90;;
57828;SDS011;43657;52.698;6.314;2023-12-28T12:02:06;21.15;;;5.45;;
57828;SDS011;43657;52.698;6.314;2023-12-28T12:04:33;21.70;;;5.40;;
57828;SDS011;43657;52.698;6.314;2023-12-28T12:07:01;22.27;;;6.03;;
57828;SDS011;43657;52.698;6.314;2023-12-28T12:09:28;21.05;;;5.63;;
57828;SDS011;43657;52.698;6.314;2023-12-28T12:11:57;24.15;;;5.50;;
57828;SDS011;43657;52.698;6.314;2023-12-28T12:14:23;22.35;;;5.13;;
57828;SDS011;43657;52.698;6.314;2023-12-28T12:16:48;22.05;;;5.68;;
57828;SDS011;43657;52.698;6.314;2023-12-28T12:19:14;21.38;;;5.47;;
57828;SDS011;43657;52.698;6.314;2023-12-28T12:21:40;23.52;;;4.95;;
57828;SDS011;43657;52.698;6.314;2023-12-28T12:24:06;26.40;;;5.53;;
57828;SDS011;43657;52.698;6.314;2023-12-28T12:26:32;21.90;;;5.15;;
57828;SDS011;43657;52.698;6.314;2023-12-28T12:28:58;25.42;;;6.00;;
57828;SDS011;43657;52.698;6.314;2023-12-28T12:31:24;19.35;;;5.15;;
57828;SDS011;43657;52.698;6.314;2023-12-28T12:33:51;21.20;;;5.45;;
57828;SDS011;43657;52.698;6.314;2023-12-28T12:36:17;29.70;;;5.93;;
57828;SDS011;43657;52.698;6.314;2023-12-28T12:38:42;22.05;;;5.38;;
57828;SDS011;43657;52.698;6.314;2023-12-28T12:41:10;24.30;;;5.28;;
57828;SDS011;43657;52.698;6.314;2023-12-28T12:43:36;23.10;;;5.35;;
57828;SDS011;43657;52.698;6.314;2023-12-28T12:46:03;22.30;;;5.50;;
57828;SDS011;43657;52.698;6.314;2023-12-28T12:48:29;23.27;;;5.68;;
57828;SDS011;43657;52.698;6.314;2023-12-28T12:50:55;26.13;;;5.43;;
57828;SDS011;43657;52.698;6.314;2023-12-28T12:53:21;22.92;;;6.18;;
57828;SDS011;43657;52.698;6.314;2023-12-28T12:55:47;22.85;;;5.30;;
57828;SDS011;43657;52.698;6.314;2023-12-28T12:58:13;20.98;;;4.95;;
57828;SDS011;43657;52.698;6.314;2023-12-28T13:00:41;25.58;;;5.93;;
57828;SDS011;43657;52.698;6.314;2023-12-28T13:03:10;21.35;;;5.28;;
57828;SDS011;43657;52.698;6.314;2023-12-28T13:05:36;22.50;;;5.50;;
57828;SDS011;43657;52.698;6.314;2023-12-28T13:08:03;21.70;;;5.30;;
57828;SDS011;43657;52.698;6.314;2023-12-28T13:10:31;27.73;;;6.03;;
57828;SDS011;43657;52.698;6.314;2023-12-28T13:12:57;24.40;;;5.50;;
57828;SDS011;43657;52.698;6.314;2023-12-28T13:15:23;25.17;;;5.72;;
57828;SDS011;43657;52.698;6.314;2023-12-28T13:17:48;22.70;;;5.00;;
57828;SDS011;43657;52.698;6.314;2023-12-28T13:20:14;19.65;;;5.03;;
57828;SDS011;43657;52.698;6.314;2023-12-28T13:22:40;22.92;;;5.57;;
57828;SDS011;43657;52.698;6.314;2023-12-28T13:25:05;20.25;;;5.03;;
57828;SDS011;43657;52.698;6.314;2023-12-28T13:27:31;23.23;;;5.38;;
57828;SDS011;43657;52.698;6.314;2023-12-28T13:29:57;21.17;;;5.18;;
57828;SDS011;43657;52.698;6.314;2023-12-28T13:32:23;19.90;;;5.45;;
57828;SDS011;43657;52.698;6.314;2023-12-28T13:34:48;23.58;;;5.55;;
57828;SDS011;43657;52.698;6.314;2023-12-28T13:37:16;19.58;;;5.10;;
57828;SDS011;43657;52.698;6.314;2023-12-28T13:39:42;25.23;;;4.93;;
57828;SDS011;43657;52.698;6.314;2023-12-28T13:42:08;20.42;;;5.50;;
57828;SDS011;43657;52.698;6.314;2023-12-28T13:44:36;22.48;;;5.00;;
57828;SDS011;43657;52.698;6.314;2023-12-28T13:47:02;19.88;;;5.18;;
57828;SDS011;43657;52.698;6.314;2023-12-28T13:49:28;20.60;;;5.18;;
57828;SDS011;43657;52.698;6.314;2023-12-28T13:51:54;19.38;;;5.10;;
57828;SDS011;43657;52.698;6.314;2023-12-28T13:54:20;18.75;;;4.80;;
57828;SDS011;43657;52.698;6.314;2023-12-28T13:56:46;22.85;;;6.15;;
57828;SDS011;43657;52.698;6.314;2023-12-28T13:59:12;20.65;;;4.95;;
57828;SDS011;43657;52.698;6.314;2023-12-28T14:01:38;23.60;;;5.88;;
57828;SDS011;43657;52.698;6.314;2023-12-28T14:04:04;23.27;;;5.60;;
57828;SDS011;43657;52.698;6.314;2023-12-28T14:06:29;19.65;;;4.85;;
57828;SDS011;43657;52.698;6.314;2023-12-28T14:08:55;20.13;;;4.80;;
57828;SDS011;43657;52.698;6.314;2023-12-28T14:11:22;20.40;;;4.70;;
57828;SDS011;43657;52.698;6.314;2023-12-28T14:13:50;22.00;;;5.22;;
57828;SDS011;43657;52.698;6.314;2023-12-28T14:16:16;16.73;;;4.82;;
57828;SDS011;43657;52.698;6.314;2023-12-28T14:18:42;18.73;;;5.20;;
57828;SDS011;43657;52.698;6.314;2023-12-28T14:21:10;18.25;;;5.18;;
57828;SDS011;43657;52.698;6.314;2023-12-28T14:23:38;20.00;;;4.90;;
57828;SDS011;43657;52.698;6.314;2023-12-28T14:26:05;22.27;;;5.28;;
57828;SDS011;43657;52.698;6.314;2023-12-28T14:28:42;21.00;;;4.78;;
57828;SDS011;43657;52.698;6.314;2023-12-28T14:31:11;19.60;;;5.80;;
57828;SDS011;43657;52.698;6.314;2023-12-28T14:33:37;19.35;;;5.13;;